FlyNAS A20N at Riyadh on Apr 28th 2024, runway excursion on landing

Last Update: May 17, 2024 / 15:32:55 GMT/Zulu time

Bookmark this article
Incident Facts

Date of incident
Apr 28, 2024

Classification
Incident

Airline
Flynas

Flight number
XY-224

Departure
Doha, Qatar

Aircraft Registration
HZ-NS45

Aircraft Type
Airbus A320-200N

ICAO Type Designator
A20N

Airport ICAO Code
OERK

A FlyNAS Airbus A320-200N, registration HZ-NS45 performing flight XY-224 from Doha (Qatar) to Riyadh (Saudi Arabia), landed on Riyadh's runway 15L at 19:34L (16:34Z) but veered right off the runway crossing the right runway edge at about 75 knots over ground, went over soft ground with all gear and came to a stop on a taxiway. There were no injuries, the aircraft sustained minor if any damage.

Riyadh Airport reported all passengers of flight XY-224 disembarked safely.

Saudi Arabia's NTSC announced they have opened an investigation into the runway excursion of a FlyNAS aircraft in Riyadh arriving from Doha.

On May 17th 2024 Saudi Arabia's NTSB reported the aircraft suffered the runway excursion following an unsafe unstabilized approach and came to a stop about 400 meters after crossing the right edge of the runway. The aircraft sustained minor damage, the occurrence was rated a serious incident.

Metars:
OERK 281804Z 33030KT 0500 DS VV/// 25/12 Q1015=
OERK 281800Z 30020G30KT 0800 BLDU VV/// 28/07 Q1014 NOSIG=
OERK 281700Z 24010KT 7000 TS FEW030CB BKN035 29/06 Q1011 RERA TEMPO 1000 BLDU=
OERK 281635Z 25021KT 3000 TSRA FEW030CB BKN035 29/08 Q1012=
OERK 281625Z 24020G30KT 1000 BLDU VV/// 32/04 Q1011=
OERK 281600Z 20005KT 9999 TS FEW030CB SCT035 BKN080 33/05 Q1009 TEMPO 3000 TSRA=
OERK 281500Z 18006KT 9999 SCT035 34/05 Q1009 NOSIG=
OERK 281400Z 19010KT 9999 SCT035 34/03 Q1009 TEMPO 3000 TSRA=
OERK 281300Z 20007KT CAVOK 34/05 Q1009 NOSIG=

Related NOTAM:
A0850/24 NOTAMN
Q) OEJD/QMRLC/IV/NBO/A/000/999/2458N04642E005
A) OERK
B) 2404281723 C) 2404282315
E) RWY 15L/33R CLSD.
Incident Facts

Date of incident
Apr 28, 2024

Classification
Incident

Airline
Flynas

Flight number
XY-224

Departure
Doha, Qatar

Aircraft Registration
HZ-NS45

Aircraft Type
Airbus A320-200N

ICAO Type Designator
A20N

Airport ICAO Code
OERK

This article is published under license from Avherald.com. © of text by Avherald.com.
Article source

You can read 2 more free articles without a subscription.

Subscribe now and continue reading without any limits!

Are you a subscriber? Login
Subscribe

Read unlimited articles and receive our daily update briefing. Gain better insights into what is happening in commercial aviation safety.

Send tip

Support AeroInside by sending a small tip amount.

Related articles

Newest articles

Subscribe today

Are you researching aviation incidents? Get access to AeroInside Insights, unlimited read access and receive the daily newsletter.

Pick your plan and subscribe

Partner

Blockaviation logo

A new way to document and demonstrate airworthiness compliance and aircraft value. Find out more.

ELITE Logo

ELITE Simulation Solutions is a leading global provider of Flight Simulation Training Devices, IFR training software as well as flight controls and related services. Find out more.

Blue Altitude Logo

Your regulation partner, specialists in aviation safety and compliance; providing training, auditing, and consultancy services. Find out more.

AeroInside Blog
Popular aircraft
Airbus A320
Boeing 737-800
Boeing 737-800 MAX
Popular airlines
American Airlines
United
Delta
Air Canada
Lufthansa
British Airways